createdAt,value
2023-07-18T00:00:23.410Z,4.90
2023-07-18T00:01:23.677Z,4.80
2023-07-18T00:02:23.389Z,4.30
2023-07-18T00:03:23.465Z,4.50
2023-07-18T00:04:23.399Z,4.20
2023-07-18T00:05:23.420Z,4.00
2023-07-18T00:06:23.442Z,4.30
2023-07-18T00:07:23.458Z,4.50
2023-07-18T00:08:23.477Z,4.40
2023-07-18T00:09:23.510Z,4.70
2023-07-18T00:10:23.522Z,4.70
2023-07-18T00:11:23.632Z,4.90
2023-07-18T00:12:23.553Z,4.40
2023-07-18T00:13:23.593Z,4.50
2023-07-18T00:14:23.600Z,4.60
2023-07-18T00:15:23.612Z,4.60
2023-07-18T00:16:23.680Z,4.70
2023-07-18T00:17:23.648Z,4.90
2023-07-18T00:18:23.671Z,4.90
2023-07-18T00:19:23.683Z,4.90
2023-07-18T00:20:23.705Z,5.00
2023-07-18T00:21:23.724Z,4.60
2023-07-18T00:22:23.763Z,5.10
2023-07-18T00:23:23.761Z,4.70
2023-07-18T00:24:23.826Z,4.40
2023-07-18T00:25:23.878Z,4.70
2023-07-18T00:26:23.819Z,4.30
2023-07-18T00:27:23.859Z,4.90
2023-07-18T00:28:23.856Z,4.50
2023-07-18T00:29:23.872Z,4.60
2023-07-18T00:30:23.894Z,4.50
2023-07-18T00:31:23.958Z,4.50
2023-07-18T00:32:23.986Z,4.40
2023-07-18T00:33:23.963Z,4.70
2023-07-18T00:34:23.967Z,4.60
2023-07-18T00:35:24.006Z,4.50
2023-07-18T00:36:24.007Z,5.10
2023-07-18T00:37:24.024Z,5.00
2023-07-18T00:38:24.043Z,4.80
2023-07-18T00:39:24.067Z,4.90
2023-07-18T00:40:24.113Z,4.30
2023-07-18T00:41:24.099Z,4.20
2023-07-18T00:42:24.122Z,4.90
2023-07-18T00:43:24.185Z,4.60
2023-07-18T00:44:24.154Z,4.80
2023-07-18T00:45:24.175Z,5.10
2023-07-18T00:46:24.239Z,4.10
2023-07-18T00:47:24.212Z,4.20
2023-07-18T00:48:24.235Z,4.70
2023-07-18T00:49:24.251Z,4.90
2023-07-18T00:50:24.269Z,5.10
2023-07-18T00:51:24.288Z,4.20
2023-07-18T00:52:24.304Z,4.40
2023-07-18T00:53:24.320Z,4.40
2023-07-18T00:54:24.343Z,4.20
2023-07-18T00:55:24.372Z,4.60
2023-07-18T00:56:24.404Z,5.10
2023-07-18T00:57:24.400Z,4.60
2023-07-18T00:58:24.420Z,4.50
2023-07-18T00:59:24.457Z,4.80
2023-07-18T01:00:24.562Z,4.50
2023-07-18T01:01:24.535Z,4.90
2023-07-18T01:02:24.538Z,4.40
2023-07-18T01:03:24.615Z,4.80
2023-07-18T01:04:24.532Z,4.60
2023-07-18T01:05:24.560Z,4.30
2023-07-18T01:06:24.567Z,4.10
2023-07-18T01:07:24.629Z,4.70
2023-07-18T01:08:24.687Z,4.40
2023-07-18T01:09:24.719Z,4.00
2023-07-18T01:10:24.905Z,4.40
2023-07-18T01:11:24.714Z,4.20
2023-07-18T01:12:24.713Z,4.30
2023-07-18T01:13:24.751Z,4.20
2023-07-18T01:14:24.718Z,4.70
2023-07-18T01:15:24.812Z,4.20
2023-07-18T01:16:24.795Z,3.90
2023-07-18T01:17:24.871Z,4.20
2023-07-18T01:18:24.821Z,4.20
2023-07-18T01:19:24.806Z,4.00
2023-07-18T01:20:24.902Z,4.20
2023-07-18T01:21:24.860Z,4.00
2023-07-18T01:22:24.864Z,3.90
2023-07-18T01:23:24.883Z,4.30
2023-07-18T01:24:24.904Z,4.40
2023-07-18T01:25:24.919Z,4.40
2023-07-18T01:26:24.964Z,4.10
2023-07-18T01:27:24.961Z,4.80
2023-07-18T01:28:24.988Z,4.40
2023-07-18T01:29:24.999Z,4.70
2023-07-18T01:30:25.017Z,4.50
2023-07-18T01:31:25.059Z,4.20
2023-07-18T01:32:25.095Z,4.10
2023-07-18T01:33:25.082Z,4.20
2023-07-18T01:34:25.098Z,3.90
2023-07-18T01:35:25.117Z,4.70
2023-07-18T01:36:25.132Z,4.00
2023-07-18T01:37:25.159Z,3.90
2023-07-18T01:38:25.165Z,4.00
2023-07-18T01:39:25.184Z,4.40
2023-07-18T01:40:25.228Z,4.10
2023-07-18T01:41:25.217Z,4.10
2023-07-18T01:42:25.251Z,4.40
2023-07-18T01:43:25.255Z,4.30
2023-07-18T01:44:25.276Z,3.60
2023-07-18T01:45:25.315Z,4.20
2023-07-18T01:46:25.342Z,4.10
2023-07-18T01:47:25.396Z,3.90
2023-07-18T01:48:25.359Z,4.30
2023-07-18T01:49:25.367Z,3.50
2023-07-18T01:50:25.392Z,4.40
2023-07-18T01:51:25.411Z,4.00
2023-07-18T01:52:25.422Z,3.90
2023-07-18T01:53:25.448Z,4.20
2023-07-18T01:54:25.461Z,3.60
2023-07-18T01:55:25.476Z,4.10
2023-07-18T01:56:25.501Z,4.30
2023-07-18T01:57:25.518Z,4.10
2023-07-18T01:58:25.540Z,4.40
2023-07-18T01:59:25.561Z,3.90
2023-07-18T02:00:25.573Z,3.70
2023-07-18T02:01:25.615Z,3.60
2023-07-18T02:02:25.660Z,3.60
2023-07-18T02:03:25.666Z,4.10
2023-07-18T02:04:25.652Z,3.70
2023-07-18T02:05:25.689Z,3.60
2023-07-18T02:06:25.683Z,4.20
2023-07-18T02:07:25.705Z,4.20
2023-07-18T02:08:25.718Z,3.70
2023-07-18T02:09:25.743Z,3.60
2023-07-18T02:10:25.767Z,3.70
2023-07-18T02:11:25.776Z,3.60
2023-07-18T02:12:25.793Z,3.60
2023-07-18T02:13:25.816Z,4.00
2023-07-18T02:14:25.832Z,4.00
2023-07-18T02:15:25.856Z,3.80
2023-07-18T02:16:25.897Z,3.60
2023-07-18T02:17:25.926Z,3.90
2023-07-18T02:18:25.912Z,3.80
2023-07-18T02:19:25.943Z,3.60
2023-07-18T02:20:25.941Z,4.00
2023-07-18T02:21:25.994Z,3.80
2023-07-18T02:22:26.009Z,3.80
2023-07-18T02:23:25.994Z,3.50
2023-07-18T02:24:26.015Z,3.50
2023-07-18T02:25:26.033Z,3.90
2023-07-18T02:26:26.050Z,3.70
2023-07-18T02:27:26.071Z,3.60
2023-07-18T02:28:26.089Z,3.40
2023-07-18T02:29:26.117Z,3.40
2023-07-18T02:30:26.154Z,3.70
2023-07-18T02:31:26.172Z,3.70
2023-07-18T02:32:26.181Z,3.30
2023-07-18T02:33:26.185Z,3.70
2023-07-18T02:34:26.198Z,3.30
2023-07-18T02:35:26.243Z,3.40
2023-07-18T02:36:26.244Z,3.40
2023-07-18T02:37:26.284Z,3.10
2023-07-18T02:38:26.275Z,3.30
2023-07-18T02:39:26.288Z,3.90
2023-07-18T02:40:26.313Z,3.20
2023-07-18T02:41:26.325Z,3.50
2023-07-18T02:42:26.359Z,3.30
2023-07-18T02:43:26.364Z,3.20
2023-07-18T02:44:26.379Z,3.00
2023-07-18T02:45:26.399Z,3.00
2023-07-18T02:46:26.457Z,3.60
2023-07-18T02:47:26.459Z,3.30
2023-07-18T02:48:26.457Z,3.30
2023-07-18T02:49:26.477Z,3.60
2023-07-18T02:50:26.494Z,3.30
2023-07-18T02:51:26.535Z,3.10
2023-07-18T02:52:26.529Z,3.40
2023-07-18T02:53:26.560Z,3.00
2023-07-18T02:54:26.563Z,3.10
2023-07-18T02:55:26.580Z,3.60
2023-07-18T02:56:26.599Z,3.30
2023-07-18T02:57:26.704Z,2.70
2023-07-18T02:58:26.639Z,3.10
2023-07-18T02:59:26.655Z,3.20
2023-07-18T03:00:26.683Z,3.30
2023-07-18T03:01:26.720Z,3.20
2023-07-18T03:02:26.738Z,3.20
2023-07-18T03:03:26.811Z,2.80
2023-07-18T03:04:26.745Z,3.10
2023-07-18T03:05:26.767Z,2.90
2023-07-18T03:06:26.783Z,3.20
2023-07-18T03:07:26.828Z,3.00
2023-07-18T03:08:26.832Z,2.90
2023-07-18T03:09:26.833Z,3.30
2023-07-18T03:10:26.854Z,3.20
2023-07-18T03:11:26.888Z,3.10
2023-07-18T03:12:26.897Z,3.20
2023-07-18T03:13:26.911Z,3.30
2023-07-18T03:14:26.945Z,3.80
2023-07-18T03:15:26.946Z,2.90
2023-07-18T03:16:27.016Z,3.00
2023-07-18T03:17:27.002Z,3.00
2023-07-18T03:18:27.015Z,4.00
2023-07-18T03:19:27.020Z,3.20
2023-07-18T03:20:27.089Z,3.20
2023-07-18T03:21:27.073Z,3.10
2023-07-18T03:22:27.132Z,2.90
2023-07-18T03:23:27.112Z,2.80
2023-07-18T03:24:27.121Z,3.10
2023-07-18T03:25:27.131Z,3.00
2023-07-18T03:26:27.149Z,2.70
2023-07-18T03:27:27.165Z,2.90
2023-07-18T03:28:27.190Z,2.90
2023-07-18T03:29:27.205Z,3.30
2023-07-18T03:30:27.236Z,2.70
2023-07-18T03:31:27.302Z,2.70
2023-07-18T03:32:27.275Z,2.60
2023-07-18T03:33:27.273Z,2.60
2023-07-18T03:34:27.296Z,2.90
2023-07-18T03:35:27.306Z,2.80
2023-07-18T03:36:27.330Z,2.80
2023-07-18T03:37:27.352Z,2.80
2023-07-18T03:38:27.363Z,2.70
2023-07-18T03:39:27.403Z,2.60
2023-07-18T03:40:27.404Z,2.40
2023-07-18T03:41:27.414Z,2.70
2023-07-18T03:42:27.439Z,2.80
2023-07-18T03:43:27.460Z,2.80
2023-07-18T03:44:27.495Z,2.80
2023-07-18T03:45:27.493Z,2.90
2023-07-18T03:46:27.529Z,2.90
2023-07-18T03:47:27.586Z,2.70
2023-07-18T03:48:27.703Z,2.80
2023-07-18T03:49:27.567Z,3.10
2023-07-18T03:50:27.643Z,2.60
2023-07-18T03:51:30.193Z,2.70
2023-07-18T03:52:27.643Z,2.80
2023-07-18T03:53:27.637Z,2.80
2023-07-18T03:54:27.657Z,2.90
2023-07-18T03:55:27.695Z,2.60
2023-07-18T03:56:27.690Z,2.80
2023-07-18T03:57:27.708Z,2.60
2023-07-18T03:58:27.731Z,2.90
2023-07-18T03:59:27.746Z,3.00
2023-07-18T04:00:27.786Z,2.70
2023-07-18T04:01:27.834Z,3.10
2023-07-18T04:02:27.856Z,2.50
2023-07-18T04:03:27.898Z,2.70
2023-07-18T04:04:27.841Z,2.80
2023-07-18T04:05:27.862Z,2.80
2023-07-18T04:06:27.873Z,2.70
2023-07-18T04:07:27.885Z,3.00
2023-07-18T04:08:27.917Z,3.20
2023-07-18T04:09:27.931Z,3.10
2023-07-18T04:10:27.950Z,2.80
2023-07-18T04:11:28.009Z,2.80
2023-07-18T04:12:27.980Z,3.00
2023-07-18T04:13:27.998Z,2.90
2023-07-18T04:14:28.023Z,2.70
2023-07-18T04:15:28.043Z,2.80
2023-07-18T04:16:28.091Z,2.80
2023-07-18T04:17:28.096Z,3.20
2023-07-18T04:18:28.116Z,3.00
2023-07-18T04:19:28.117Z,2.80
2023-07-18T04:20:28.141Z,3.10
2023-07-18T04:21:28.153Z,2.70
2023-07-18T04:22:28.212Z,2.80
2023-07-18T04:23:28.178Z,2.70
2023-07-18T04:24:28.204Z,3.00
2023-07-18T04:25:28.217Z,2.90
2023-07-18T04:26:28.236Z,2.60
2023-07-18T04:27:28.265Z,3.10
2023-07-18T04:28:28.269Z,2.90
2023-07-18T04:29:28.290Z,2.90
2023-07-18T04:30:28.303Z,2.70
2023-07-18T04:31:28.383Z,2.70
2023-07-18T04:32:28.379Z,2.80
2023-07-18T04:33:28.368Z,3.00
2023-07-18T04:34:28.377Z,2.70
2023-07-18T04:35:28.395Z,2.70
2023-07-18T04:36:28.410Z,2.80
2023-07-18T04:37:28.432Z,2.60
2023-07-18T04:38:28.457Z,2.60
2023-07-18T04:39:28.476Z,2.90
2023-07-18T04:40:28.484Z,2.60
2023-07-18T04:41:35.032Z,2.50
2023-07-18T04:42:28.529Z,2.90
2023-07-18T04:43:28.561Z,2.70
2023-07-18T04:44:28.561Z,2.70
2023-07-18T04:45:28.572Z,3.00
2023-07-18T04:46:28.626Z,2.70
2023-07-18T04:47:28.684Z,2.50
2023-07-18T04:48:28.647Z,2.60
2023-07-18T04:49:28.643Z,2.20
2023-07-18T04:50:30.349Z,2.80
2023-07-18T04:51:28.678Z,2.40
2023-07-18T04:52:28.696Z,2.70
2023-07-18T04:53:28.731Z,2.40
2023-07-18T04:54:28.731Z,2.30
2023-07-18T04:55:28.753Z,2.30
2023-07-18T04:56:28.767Z,2.20
2023-07-18T04:57:28.793Z,2.60
2023-07-18T04:58:28.800Z,2.20
2023-07-18T04:59:28.867Z,2.80
2023-07-18T05:00:28.834Z,2.40
2023-07-18T05:01:28.906Z,2.60
2023-07-18T05:02:28.945Z,2.30
2023-07-18T05:03:29.694Z,2.70
2023-07-18T05:04:28.946Z,2.40
2023-07-18T05:05:28.963Z,2.20
2023-07-18T05:06:28.944Z,1.90
2023-07-18T05:07:28.969Z,2.00
2023-07-18T05:08:28.984Z,2.00
2023-07-18T05:09:29.001Z,2.50
2023-07-18T05:10:29.018Z,2.10
2023-07-18T05:11:29.046Z,2.00
2023-07-18T05:12:29.064Z,2.10
2023-07-18T05:13:29.098Z,2.10
2023-07-18T05:14:29.083Z,1.90
2023-07-18T05:15:29.132Z,2.60
2023-07-18T05:16:29.158Z,2.20
2023-07-18T05:17:29.192Z,2.00
2023-07-18T05:18:29.155Z,2.00
2023-07-18T05:19:29.192Z,2.10
2023-07-18T05:20:30.744Z,2.30
2023-07-18T05:21:29.223Z,2.30
2023-07-18T05:22:29.290Z,2.50
2023-07-18T05:23:29.269Z,2.30
2023-07-18T05:24:29.264Z,2.60
2023-07-18T05:25:29.282Z,2.10
2023-07-18T05:26:29.311Z,2.50
2023-07-18T05:27:29.338Z,2.30
2023-07-18T05:28:29.367Z,2.10
2023-07-18T05:29:29.357Z,2.00
2023-07-18T05:30:29.374Z,1.90
2023-07-18T05:31:29.421Z,2.30
2023-07-18T05:32:29.465Z,2.20
2023-07-18T05:33:29.449Z,2.10
2023-07-18T05:34:30.564Z,2.50
2023-07-18T05:35:29.488Z,2.10
2023-07-18T05:36:29.481Z,2.20
2023-07-18T05:37:29.503Z,2.10
2023-07-18T05:38:29.528Z,2.30
2023-07-18T05:39:29.543Z,2.10
2023-07-18T05:40:29.560Z,2.10
2023-07-18T05:41:29.580Z,2.50
2023-07-18T05:42:29.595Z,2.60
2023-07-18T05:43:29.612Z,2.30
2023-07-18T05:44:29.636Z,2.50
2023-07-18T05:45:29.660Z,2.30
2023-07-18T05:46:29.759Z,2.20
2023-07-18T05:47:29.733Z,2.50
2023-07-18T05:48:29.720Z,2.40
2023-07-18T05:49:29.724Z,2.30
2023-07-18T05:50:29.744Z,2.30
2023-07-18T05:51:29.768Z,2.60
2023-07-18T05:52:29.777Z,2.10
2023-07-18T05:53:29.802Z,2.10
2023-07-18T05:54:29.816Z,2.50
2023-07-18T05:55:29.868Z,2.40
2023-07-18T05:56:29.853Z,2.60
2023-07-18T05:57:29.874Z,2.30
2023-07-18T05:58:29.903Z,2.50
2023-07-18T05:59:29.906Z,2.10
2023-07-18T06:00:29.945Z,2.50
2023-07-18T06:01:30.006Z,2.40
2023-07-18T06:02:29.985Z,2.10
2023-07-18T06:03:30.198Z,2.20
2023-07-18T06:04:30.007Z,2.50
2023-07-18T06:05:30.031Z,2.40
2023-07-18T06:06:30.064Z,2.50
2023-07-18T06:07:30.053Z,2.30
2023-07-18T06:08:30.072Z,2.40
2023-07-18T06:09:30.108Z,2.70
2023-07-18T06:10:30.125Z,2.60
2023-07-18T06:11:30.130Z,2.60
2023-07-18T06:12:30.148Z,2.90
2023-07-18T06:13:30.176Z,2.30
2023-07-18T06:14:30.185Z,2.10
2023-07-18T06:15:30.208Z,2.50
2023-07-18T06:16:30.232Z,2.70
2023-07-18T06:17:30.294Z,3.00
2023-07-18T06:18:30.270Z,2.30
2023-07-18T06:19:30.307Z,2.80
2023-07-18T06:20:30.307Z,2.70
2023-07-18T06:21:30.333Z,2.70
2023-07-18T06:22:30.375Z,2.50
2023-07-18T06:23:30.383Z,2.40
2023-07-18T06:24:30.386Z,2.80
2023-07-18T06:25:30.396Z,2.60
2023-07-18T06:26:30.432Z,2.80
2023-07-18T06:27:30.565Z,2.60
2023-07-18T06:28:30.453Z,2.70
2023-07-18T06:29:30.473Z,2.80
2023-07-18T06:30:30.496Z,2.80
2023-07-18T06:31:30.583Z,3.10
2023-07-18T06:32:30.546Z,3.00
2023-07-18T06:33:30.568Z,2.70
2023-07-18T06:34:30.578Z,2.60
2023-07-18T06:35:30.760Z,3.00
2023-07-18T06:36:30.641Z,3.00
2023-07-18T06:37:30.669Z,2.80
2023-07-18T06:38:30.649Z,2.40
2023-07-18T06:39:30.716Z,2.90
2023-07-18T06:40:30.703Z,3.10
2023-07-18T06:41:30.718Z,3.10
2023-07-18T06:42:30.736Z,2.60
2023-07-18T06:43:30.742Z,3.10
2023-07-18T06:44:30.771Z,3.30
2023-07-18T06:45:30.792Z,3.50
2023-07-18T06:46:30.819Z,3.50
2023-07-18T06:47:30.838Z,3.20
2023-07-18T06:48:30.842Z,3.20
2023-07-18T06:49:30.874Z,3.00
2023-07-18T06:50:30.885Z,2.80
2023-07-18T06:51:30.925Z,3.00
2023-07-18T06:52:32.024Z,2.80
2023-07-18T06:53:30.942Z,3.00
2023-07-18T06:54:30.960Z,2.90
2023-07-18T06:55:30.983Z,2.90
2023-07-18T06:56:31.005Z,2.90
2023-07-18T06:57:31.020Z,3.10
2023-07-18T06:58:31.046Z,3.10
2023-07-18T06:59:31.099Z,3.10
2023-07-18T07:00:31.103Z,3.40
2023-07-18T07:01:31.146Z,3.10
2023-07-18T07:02:31.144Z,3.00
2023-07-18T07:03:31.554Z,3.30
2023-07-18T07:04:31.168Z,3.40
2023-07-18T07:05:31.190Z,3.50
2023-07-18T07:06:31.207Z,3.60
2023-07-18T07:07:31.253Z,3.90
2023-07-18T07:08:31.253Z,3.70
2023-07-18T07:09:31.267Z,3.90
2023-07-18T07:10:31.293Z,3.50
2023-07-18T07:11:31.321Z,3.70
2023-07-18T07:12:36.782Z,3.40
2023-07-18T07:13:31.343Z,3.90
2023-07-18T07:14:31.365Z,3.90
2023-07-18T07:15:31.394Z,3.60
2023-07-18T07:16:31.453Z,3.70
2023-07-18T07:17:31.471Z,3.70
2023-07-18T07:18:31.452Z,4.30
2023-07-18T07:19:31.477Z,3.90
2023-07-18T07:20:31.495Z,3.50
2023-07-18T07:21:31.530Z,3.80
2023-07-18T07:22:31.593Z,4.90
2023-07-18T07:23:31.580Z,5.30
2023-07-18T07:24:31.565Z,4.60
2023-07-18T07:25:31.591Z,4.10
2023-07-18T07:26:31.609Z,3.60
2023-07-18T07:27:31.631Z,3.80
2023-07-18T07:28:31.657Z,4.00
2023-07-18T07:29:31.672Z,4.30
2023-07-18T07:30:31.709Z,3.30
2023-07-18T07:31:31.789Z,4.30
2023-07-18T07:32:31.787Z,3.60
2023-07-18T07:33:31.752Z,3.70
2023-07-18T07:34:33.216Z,3.40
2023-07-18T07:35:31.812Z,3.10
2023-07-18T07:36:31.818Z,4.30
2023-07-18T07:37:31.842Z,4.20
2023-07-18T07:38:31.880Z,4.40
2023-07-18T07:39:31.914Z,3.80
2023-07-18T07:40:31.901Z,3.70
2023-07-18T07:41:31.922Z,3.90
2023-07-18T07:42:31.940Z,4.80
2023-07-18T07:43:31.971Z,4.30
2023-07-18T07:44:31.980Z,3.60
2023-07-18T07:45:32.009Z,4.00
2023-07-18T07:46:32.080Z,3.80
2023-07-18T07:47:32.081Z,3.90
2023-07-18T07:48:32.077Z,4.10
2023-07-18T07:49:32.093Z,4.20
2023-07-18T07:50:32.112Z,3.80
2023-07-18T07:51:32.135Z,4.40
2023-07-18T07:52:32.153Z,3.90
2023-07-18T07:53:32.200Z,4.10
2023-07-18T07:54:32.195Z,3.80
2023-07-18T07:55:32.252Z,4.00
2023-07-18T07:56:32.249Z,4.40
2023-07-18T07:57:32.263Z,4.40
2023-07-18T07:58:32.288Z,4.00
2023-07-18T07:59:32.314Z,4.40
2023-07-18T08:00:32.325Z,3.90
2023-07-18T08:01:32.358Z,4.50
2023-07-18T08:02:32.456Z,4.20
2023-07-18T08:03:32.391Z,4.70
2023-07-18T08:04:32.469Z,4.10
2023-07-18T08:05:32.475Z,4.60
2023-07-18T08:06:32.488Z,4.20
2023-07-18T08:07:32.487Z,3.70
2023-07-18T08:08:32.553Z,4.10
2023-07-18T08:09:32.566Z,4.30
2023-07-18T08:10:32.563Z,4.10
2023-07-18T08:11:32.601Z,4.60
2023-07-18T08:12:32.589Z,4.50
2023-07-18T08:13:32.610Z,4.20
2023-07-18T08:14:32.643Z,4.60
2023-07-18T08:15:32.654Z,4.10
2023-07-18T08:16:32.782Z,4.10
2023-07-18T08:17:32.767Z,4.00
2023-07-18T08:18:32.717Z,3.90
2023-07-18T08:19:32.743Z,3.70
2023-07-18T08:20:32.861Z,4.20
2023-07-18T08:21:32.784Z,4.30
2023-07-18T08:22:32.819Z,4.00
2023-07-18T08:23:32.850Z,4.40
2023-07-18T08:24:32.854Z,4.40
2023-07-18T08:25:32.908Z,4.00
2023-07-18T08:26:32.901Z,3.30
2023-07-18T08:27:32.937Z,3.80
2023-07-18T08:28:32.957Z,3.50
2023-07-18T08:29:33.010Z,4.70
2023-07-18T08:30:33.007Z,3.90
2023-07-18T08:31:33.069Z,4.70
2023-07-18T08:32:33.045Z,4.40
2023-07-18T08:33:33.056Z,5.20
2023-07-18T08:34:33.076Z,4.80
2023-07-18T08:35:33.100Z,4.10
2023-07-18T08:36:33.121Z,4.80
2023-07-18T08:37:33.161Z,3.70
2023-07-18T08:38:33.173Z,4.00
2023-07-18T08:39:33.201Z,4.20
2023-07-18T08:40:33.215Z,3.90
2023-07-18T08:41:33.244Z,4.30
2023-07-18T08:42:33.257Z,4.30
2023-07-18T08:43:33.315Z,4.10
2023-07-18T08:44:33.301Z,4.00
2023-07-18T08:45:33.321Z,4.30
2023-07-18T08:46:33.389Z,4.50
2023-07-18T08:47:33.370Z,4.20
2023-07-18T08:48:33.392Z,3.80
2023-07-18T08:49:36.339Z,4.20
2023-07-18T08:50:33.464Z,4.00
2023-07-18T08:51:33.459Z,4.20
2023-07-18T08:52:33.524Z,4.00
2023-07-18T08:53:33.508Z,3.90
2023-07-18T08:54:33.533Z,4.60
2023-07-18T08:55:33.589Z,4.00
2023-07-18T08:56:33.575Z,3.90
2023-07-18T08:57:33.599Z,4.30
2023-07-18T08:58:33.623Z,4.30
2023-07-18T08:59:33.660Z,4.20
2023-07-18T09:00:33.719Z,4.40
2023-07-18T09:01:33.770Z,4.40
2023-07-18T09:02:33.863Z,4.40
2023-07-18T09:03:33.776Z,4.80
2023-07-18T09:04:33.782Z,5.80
2023-07-18T09:05:33.799Z,4.30
2023-07-18T09:06:33.811Z,4.10
2023-07-18T09:07:33.843Z,4.10
2023-07-18T09:08:33.855Z,4.80
2023-07-18T09:09:33.899Z,4.20
2023-07-18T09:10:33.906Z,4.50
2023-07-18T09:11:33.924Z,4.20
2023-07-18T09:12:33.950Z,4.80
2023-07-18T09:13:33.972Z,4.40
2023-07-18T09:14:33.996Z,4.30
2023-07-18T09:15:34.315Z,4.10
2023-07-18T09:16:34.073Z,4.40
2023-07-18T09:17:34.086Z,4.30
2023-07-18T09:18:34.092Z,3.90
2023-07-18T09:19:34.113Z,4.10
2023-07-18T09:20:34.146Z,4.70
2023-07-18T09:21:34.159Z,4.00
2023-07-18T09:22:34.200Z,4.10
2023-07-18T09:23:34.210Z,4.70
2023-07-18T09:24:34.239Z,4.10
2023-07-18T09:25:34.260Z,4.50
2023-07-18T09:26:34.276Z,4.10
2023-07-18T09:27:34.301Z,4.10
2023-07-18T09:28:34.342Z,4.50
2023-07-18T09:29:34.348Z,4.80
2023-07-18T09:30:34.389Z,4.60
2023-07-18T09:31:34.533Z,4.00
2023-07-18T09:32:34.459Z,3.60
2023-07-18T09:33:34.447Z,4.00
2023-07-18T09:34:34.493Z,4.30
2023-07-18T09:35:34.494Z,4.80
2023-07-18T09:36:36.857Z,4.20
2023-07-18T09:37:34.540Z,4.50
2023-07-18T09:38:34.572Z,5.10
2023-07-18T09:39:34.599Z,3.80
2023-07-18T09:40:34.623Z,4.10
2023-07-18T09:41:34.642Z,4.10
2023-07-18T09:42:34.676Z,4.90
2023-07-18T09:43:36.734Z,4.30
2023-07-18T09:44:37.215Z,3.80
2023-07-18T09:45:34.747Z,5.20
2023-07-18T09:46:34.805Z,4.70
2023-07-18T09:47:34.892Z,4.60
2023-07-18T09:48:44.616Z,4.10
2023-07-18T09:49:34.890Z,4.80
2023-07-18T09:50:34.866Z,4.50
2023-07-18T09:51:34.891Z,4.30
2023-07-18T09:52:34.919Z,4.40
2023-07-18T09:53:34.937Z,4.50
2023-07-18T09:54:34.975Z,4.40
2023-07-18T09:55:34.986Z,4.30
2023-07-18T09:56:35.015Z,4.80
2023-07-18T09:57:35.045Z,4.80
2023-07-18T09:58:35.062Z,4.80
2023-07-18T09:59:35.091Z,4.60
2023-07-18T10:00:35.111Z,4.30
2023-07-18T10:01:35.201Z,4.40
2023-07-18T10:02:35.223Z,4.80
2023-07-18T10:03:35.389Z,4.80
2023-07-18T10:04:35.250Z,4.20
2023-07-18T10:05:35.270Z,4.70
2023-07-18T10:06:35.270Z,4.30
2023-07-18T10:07:35.281Z,4.50
2023-07-18T10:08:35.312Z,4.40
2023-07-18T10:09:35.337Z,4.10
2023-07-18T10:10:35.358Z,4.00
2023-07-18T10:11:35.405Z,4.50
2023-07-18T10:12:35.408Z,4.30
2023-07-18T10:13:35.432Z,5.40
2023-07-18T10:14:35.465Z,4.50
2023-07-18T10:15:35.481Z,4.30
2023-07-18T10:16:35.556Z,4.70
2023-07-18T10:17:35.666Z,4.30
2023-07-18T10:18:35.561Z,4.80
2023-07-18T10:19:35.685Z,4.80
2023-07-18T10:20:38.129Z,4.80
2023-07-18T10:21:35.636Z,5.00
2023-07-18T10:22:35.698Z,4.50
2023-07-18T10:23:35.678Z,4.80
2023-07-18T10:24:35.713Z,4.60
2023-07-18T10:25:35.733Z,5.30
2023-07-18T10:26:35.767Z,4.70
2023-07-18T10:27:35.799Z,5.00
2023-07-18T10:28:35.819Z,5.30
2023-07-18T10:29:35.835Z,4.60
2023-07-18T10:30:35.862Z,4.80
2023-07-18T10:31:35.964Z,4.80
2023-07-18T10:32:35.923Z,4.90
2023-07-18T10:33:35.940Z,5.20
2023-07-18T10:34:35.982Z,5.10
2023-07-18T10:35:36.161Z,5.40
2023-07-18T10:36:36.019Z,5.20
2023-07-18T10:37:36.071Z,5.10
2023-07-18T10:38:36.068Z,4.60
2023-07-18T10:39:36.093Z,5.30
2023-07-18T10:40:36.124Z,4.80
2023-07-18T10:41:36.143Z,4.60
2023-07-18T10:42:36.278Z,5.10
2023-07-18T10:43:36.194Z,4.70
2023-07-18T10:44:36.227Z,4.50
2023-07-18T10:45:36.268Z,5.20
2023-07-18T10:46:36.287Z,4.80
2023-07-18T10:47:36.385Z,4.90
2023-07-18T10:48:36.325Z,4.60
2023-07-18T10:49:36.367Z,5.10
2023-07-18T10:50:36.378Z,5.00
2023-07-18T10:51:36.430Z,5.20
2023-07-18T10:52:36.567Z,4.70
2023-07-18T10:53:36.466Z,5.20
2023-07-18T10:54:36.491Z,5.30
2023-07-18T10:55:36.518Z,5.30
2023-07-18T10:56:36.537Z,5.50
2023-07-18T10:57:36.561Z,5.80
2023-07-18T10:58:36.595Z,5.20
2023-07-18T10:59:36.614Z,5.20
2023-07-18T11:00:36.674Z,5.20
2023-07-18T11:01:36.687Z,4.60
2023-07-18T11:02:36.767Z,5.10
2023-07-18T11:03:36.790Z,5.00
2023-07-18T11:04:36.764Z,5.20
2023-07-18T11:05:36.774Z,4.70
2023-07-18T11:06:36.805Z,4.90
2023-07-18T11:07:36.847Z,5.40
2023-07-18T11:08:36.870Z,6.00
2023-07-18T11:09:36.885Z,5.60
2023-07-18T11:10:36.906Z,5.20
2023-07-18T11:11:36.931Z,5.40
2023-07-18T11:12:36.967Z,5.10
2023-07-18T11:13:36.996Z,5.10
2023-07-18T11:14:37.013Z,5.40
2023-07-18T11:15:37.044Z,5.20
2023-07-18T11:16:37.129Z,5.60
2023-07-18T11:17:37.139Z,5.20
2023-07-18T11:18:37.118Z,4.80
2023-07-18T11:19:37.152Z,5.10
2023-07-18T11:20:37.179Z,5.00
2023-07-18T11:21:37.206Z,5.40
2023-07-18T11:22:37.288Z,5.20
2023-07-18T11:23:37.286Z,5.20
2023-07-18T11:24:37.307Z,5.70
2023-07-18T11:25:37.326Z,5.60
2023-07-18T11:26:37.357Z,5.60
2023-07-18T11:27:37.365Z,5.60
2023-07-18T11:28:37.408Z,5.00
2023-07-18T11:29:37.420Z,5.90
2023-07-18T11:30:37.524Z,5.20
2023-07-18T11:31:41.404Z,5.50
2023-07-18T11:32:37.524Z,5.10
2023-07-18T11:33:37.532Z,5.10
2023-07-18T11:34:37.552Z,5.20
2023-07-18T11:35:37.587Z,5.60
2023-07-18T11:36:37.612Z,5.60
2023-07-18T11:37:42.184Z,5.10
2023-07-18T11:38:37.659Z,4.90
2023-07-18T11:39:37.730Z,5.80
2023-07-18T11:40:37.721Z,5.00
2023-07-18T11:41:37.747Z,5.50
2023-07-18T11:42:37.772Z,5.20
2023-07-18T11:43:37.806Z,5.20
2023-07-18T11:44:37.827Z,5.10
2023-07-18T11:45:37.851Z,5.40
2023-07-18T11:46:37.889Z,5.60
2023-07-18T11:47:37.989Z,5.60
2023-07-18T11:48:38.049Z,4.90
2023-07-18T11:49:37.962Z,5.30
2023-07-18T11:50:37.997Z,4.90
2023-07-18T11:51:38.018Z,5.30
2023-07-18T11:52:38.054Z,5.20
2023-07-18T11:53:38.079Z,5.10
2023-07-18T11:54:38.111Z,5.40
2023-07-18T11:55:38.154Z,5.50
2023-07-18T11:56:38.159Z,4.70
2023-07-18T11:57:38.190Z,5.00
2023-07-18T11:58:38.219Z,5.60
2023-07-18T11:59:38.233Z,4.50
2023-07-18T12:00:38.270Z,5.20
2023-07-18T12:01:39.214Z,5.10
2023-07-18T12:02:38.405Z,5.10
2023-07-18T12:03:38.548Z,4.80
2023-07-18T12:04:38.378Z,4.50
2023-07-18T12:05:38.408Z,5.00
2023-07-18T12:06:38.427Z,4.70
2023-07-18T12:07:38.457Z,4.50
2023-07-18T12:08:38.481Z,4.60
2023-07-18T12:09:38.504Z,5.80
2023-07-18T12:10:38.537Z,4.30
2023-07-18T12:11:38.575Z,4.90
2023-07-18T12:12:38.598Z,5.50
2023-07-18T12:13:38.621Z,5.20
2023-07-18T12:14:38.640Z,5.40
2023-07-18T12:15:38.672Z,5.00
2023-07-18T12:16:38.710Z,5.60
2023-07-18T12:17:38.765Z,5.20
2023-07-18T12:18:38.756Z,4.80
2023-07-18T12:19:38.775Z,5.10
2023-07-18T12:20:38.812Z,5.00
2023-07-18T12:21:38.830Z,4.80
2023-07-18T12:22:39.060Z,5.10
2023-07-18T12:23:38.889Z,5.00
2023-07-18T12:24:38.916Z,4.90
2023-07-18T12:25:38.938Z,5.20
2023-07-18T12:26:38.978Z,5.50
2023-07-18T12:27:39.183Z,5.80
2023-07-18T12:28:39.023Z,5.50
2023-07-18T12:29:39.045Z,5.10
2023-07-18T12:30:39.104Z,5.30
2023-07-18T12:31:39.153Z,4.40
2023-07-18T12:32:39.287Z,5.10
2023-07-18T12:33:39.195Z,4.90
2023-07-18T12:34:39.178Z,5.20
2023-07-18T12:35:39.197Z,5.60
2023-07-18T12:36:39.224Z,6.10
2023-07-18T12:37:39.258Z,5.30
2023-07-18T12:38:39.286Z,5.70
2023-07-18T12:39:39.335Z,5.70
2023-07-18T12:40:39.325Z,5.50
2023-07-18T12:41:39.352Z,6.10
2023-07-18T12:42:39.381Z,5.60
2023-07-18T12:43:39.425Z,5.90
2023-07-18T12:44:39.428Z,5.80
2023-07-18T12:45:39.460Z,5.50
2023-07-18T12:46:39.515Z,6.10
2023-07-18T12:47:39.551Z,5.50
2023-07-18T12:48:50.031Z,5.50
2023-07-18T12:50:39.593Z,5.30
2023-07-18T12:51:39.611Z,5.80
2023-07-18T12:52:39.636Z,5.60
2023-07-18T12:53:39.664Z,5.20
2023-07-18T12:54:39.685Z,5.50
2023-07-18T12:55:39.720Z,5.20
2023-07-18T12:56:39.746Z,5.70
2023-07-18T12:57:39.765Z,5.90
2023-07-18T12:58:39.798Z,5.20
2023-07-18T12:59:39.842Z,5.30
2023-07-18T13:00:39.848Z,5.60
2023-07-18T13:01:39.883Z,5.70
2023-07-18T13:02:39.986Z,5.90
2023-07-18T13:03:40.075Z,5.70
2023-07-18T13:04:39.969Z,5.70
2023-07-18T13:05:39.985Z,5.70
2023-07-18T13:06:40.017Z,5.60
2023-07-18T13:07:40.051Z,5.70
2023-07-18T13:08:40.048Z,5.50
2023-07-18T13:09:40.078Z,5.70
2023-07-18T13:10:40.123Z,5.70
2023-07-18T13:11:40.136Z,6.80
2023-07-18T13:12:40.156Z,5.70
2023-07-18T13:13:40.180Z,5.10
2023-07-18T13:14:40.204Z,5.10
2023-07-18T13:15:40.384Z,4.90
2023-07-18T13:16:40.278Z,5.30
2023-07-18T13:17:40.292Z,4.90
2023-07-18T13:18:40.308Z,4.40
2023-07-18T13:19:40.330Z,5.30